sensor_id;sensor_type;location;lat;lon;timestamp;P1;durP1;ratioP1;P2;durP2;ratioP2
36653;SDS011;22650;49.350;20.898;2023-05-10T00:02:12;13.00;;;6.43;;
36653;SDS011;22650;49.350;20.898;2023-05-10T00:05:17;15.43;;;7.45;;
36653;SDS011;22650;49.350;20.898;2023-05-10T00:07:52;15.20;;;7.70;;
36653;SDS011;22650;49.350;20.898;2023-05-10T00:10:26;15.63;;;6.75;;
36653;SDS011;22650;49.350;20.898;2023-05-10T00:13:00;16.10;;;6.97;;
36653;SDS011;22650;49.350;20.898;2023-05-10T00:15:36;20.25;;;8.38;;
36653;SDS011;22650;49.350;20.898;2023-05-10T00:18:10;19.08;;;7.63;;
36653;SDS011;22650;49.350;20.898;2023-05-10T00:20:44;14.35;;;7.28;;
36653;SDS011;22650;49.350;20.898;2023-05-10T00:23:21;18.40;;;8.23;;
36653;SDS011;22650;49.350;20.898;2023-05-10T00:25:54;19.02;;;8.57;;
36653;SDS011;22650;49.350;20.898;2023-05-10T00:28:28;21.15;;;8.52;;
36653;SDS011;22650;49.350;20.898;2023-05-10T00:31:04;13.43;;;7.32;;
36653;SDS011;22650;49.350;20.898;2023-05-10T00:33:38;17.08;;;7.95;;
36653;SDS011;22650;49.350;20.898;2023-05-10T00:36:13;16.35;;;7.57;;
36653;SDS011;22650;49.350;20.898;2023-05-10T00:38:47;19.25;;;7.65;;
36653;SDS011;22650;49.350;20.898;2023-05-10T00:41:22;20.23;;;8.40;;
36653;SDS011;22650;49.350;20.898;2023-05-10T00:43:56;15.07;;;7.28;;
36653;SDS011;22650;49.350;20.898;2023-05-10T00:46:31;16.35;;;6.57;;
36653;SDS011;22650;49.350;20.898;2023-05-10T00:49:05;17.33;;;8.75;;
36653;SDS011;22650;49.350;20.898;2023-05-10T00:51:40;15.45;;;7.72;;
36653;SDS011;22650;49.350;20.898;2023-05-10T00:54:14;20.70;;;7.80;;
36653;SDS011;22650;49.350;20.898;2023-05-10T00:56:48;21.23;;;8.43;;
36653;SDS011;22650;49.350;20.898;2023-05-10T00:59:22;22.10;;;8.13;;
36653;SDS011;22650;49.350;20.898;2023-05-10T01:01:59;15.73;;;7.15;;
36653;SDS011;22650;49.350;20.898;2023-05-10T01:04:34;21.10;;;9.15;;
36653;SDS011;22650;49.350;20.898;2023-05-10T01:07:08;21.10;;;8.00;;
36653;SDS011;22650;49.350;20.898;2023-05-10T01:09:42;14.43;;;7.78;;
36653;SDS011;22650;49.350;20.898;2023-05-10T01:12:16;17.55;;;7.70;;
36653;SDS011;22650;49.350;20.898;2023-05-10T01:14:50;19.40;;;8.55;;
36653;SDS011;22650;49.350;20.898;2023-05-10T01:17:26;14.40;;;7.25;;
36653;SDS011;22650;49.350;20.898;2023-05-10T01:20:01;18.98;;;8.65;;
36653;SDS011;22650;49.350;20.898;2023-05-10T01:25:43;16.30;;;7.90;;
36653;SDS011;22650;49.350;20.898;2023-05-10T01:34:52;14.75;;;7.05;;
36653;SDS011;22650;49.350;20.898;2023-05-10T01:37:36;29.08;;;7.78;;
36653;SDS011;22650;49.350;20.898;2023-05-10T01:40:17;14.13;;;6.70;;
36653;SDS011;22650;49.350;20.898;2023-05-10T01:42:58;13.82;;;5.75;;
36653;SDS011;22650;49.350;20.898;2023-05-10T01:45:37;13.02;;;5.80;;
36653;SDS011;22650;49.350;20.898;2023-05-10T01:48:17;12.98;;;6.55;;
36653;SDS011;22650;49.350;20.898;2023-05-10T01:50:52;16.67;;;5.90;;
36653;SDS011;22650;49.350;20.898;2023-05-10T01:53:27;14.27;;;6.43;;
36653;SDS011;22650;49.350;20.898;2023-05-10T01:56:01;16.23;;;6.70;;
36653;SDS011;22650;49.350;20.898;2023-05-10T01:58:36;15.68;;;6.85;;
36653;SDS011;22650;49.350;20.898;2023-05-10T02:01:17;15.88;;;7.55;;
36653;SDS011;22650;49.350;20.898;2023-05-10T02:03:56;14.10;;;7.28;;
36653;SDS011;22650;49.350;20.898;2023-05-10T02:06:33;15.80;;;5.88;;
36653;SDS011;22650;49.350;20.898;2023-05-10T02:09:08;13.93;;;5.88;;
36653;SDS011;22650;49.350;20.898;2023-05-10T02:11:43;12.70;;;6.22;;
36653;SDS011;22650;49.350;20.898;2023-05-10T02:14:17;13.25;;;6.45;;
36653;SDS011;22650;49.350;20.898;2023-05-10T02:16:52;9.55;;;5.85;;
36653;SDS011;22650;49.350;20.898;2023-05-10T02:19:29;13.05;;;6.38;;
36653;SDS011;22650;49.350;20.898;2023-05-10T02:22:04;15.85;;;6.03;;
36653;SDS011;22650;49.350;20.898;2023-05-10T02:24:39;13.00;;;6.88;;
36653;SDS011;22650;49.350;20.898;2023-05-10T02:27:14;11.07;;;6.05;;
36653;SDS011;22650;49.350;20.898;2023-05-10T02:29:51;11.10;;;5.25;;
36653;SDS011;22650;49.350;20.898;2023-05-10T02:32:26;14.70;;;5.53;;
36653;SDS011;22650;49.350;20.898;2023-05-10T02:35:02;12.35;;;6.18;;
36653;SDS011;22650;49.350;20.898;2023-05-10T02:37:37;9.95;;;5.35;;
36653;SDS011;22650;49.350;20.898;2023-05-10T02:40:12;12.60;;;6.47;;
36653;SDS011;22650;49.350;20.898;2023-05-10T02:42:47;11.07;;;5.53;;
36653;SDS011;22650;49.350;20.898;2023-05-10T02:45:26;12.07;;;5.55;;
36653;SDS011;22650;49.350;20.898;2023-05-10T02:48:02;13.10;;;5.95;;
36653;SDS011;22650;49.350;20.898;2023-05-10T02:50:37;10.80;;;5.40;;
36653;SDS011;22650;49.350;20.898;2023-05-10T02:53:15;11.80;;;5.30;;
36653;SDS011;22650;49.350;20.898;2023-05-10T02:55:55;13.68;;;6.28;;
36653;SDS011;22650;49.350;20.898;2023-05-10T02:58:35;12.73;;;5.88;;
36653;SDS011;22650;49.350;20.898;2023-05-10T03:01:09;16.73;;;6.30;;
36653;SDS011;22650;49.350;20.898;2023-05-10T03:03:43;16.33;;;5.93;;
36653;SDS011;22650;49.350;20.898;2023-05-10T03:06:18;13.82;;;6.07;;
36653;SDS011;22650;49.350;20.898;2023-05-10T03:08:52;10.15;;;5.70;;
36653;SDS011;22650;49.350;20.898;2023-05-10T03:11:32;13.23;;;4.90;;
36653;SDS011;22650;49.350;20.898;2023-05-10T03:14:16;12.45;;;6.25;;
36653;SDS011;22650;49.350;20.898;2023-05-10T03:16:59;11.75;;;5.07;;
36653;SDS011;22650;49.350;20.898;2023-05-10T03:19:40;14.65;;;5.00;;
36653;SDS011;22650;49.350;20.898;2023-05-10T03:22:24;9.45;;;4.72;;
36653;SDS011;22650;49.350;20.898;2023-05-10T03:25:00;10.68;;;5.53;;
36653;SDS011;22650;49.350;20.898;2023-05-10T03:27:40;15.50;;;6.30;;
36653;SDS011;22650;49.350;20.898;2023-05-10T03:30:16;17.00;;;8.40;;
36653;SDS011;22650;49.350;20.898;2023-05-10T03:32:51;18.73;;;7.70;;
36653;SDS011;22650;49.350;20.898;2023-05-10T03:35:25;16.05;;;7.72;;
36653;SDS011;22650;49.350;20.898;2023-05-10T03:38:00;13.43;;;7.30;;
36653;SDS011;22650;49.350;20.898;2023-05-10T03:40:34;13.63;;;7.47;;
36653;SDS011;22650;49.350;20.898;2023-05-10T03:43:08;12.98;;;6.47;;
36653;SDS011;22650;49.350;20.898;2023-05-10T03:45:41;14.25;;;6.47;;
36653;SDS011;22650;49.350;20.898;2023-05-10T03:48:15;14.07;;;7.03;;
36653;SDS011;22650;49.350;20.898;2023-05-10T03:50:49;14.63;;;7.65;;
36653;SDS011;22650;49.350;20.898;2023-05-10T03:53:25;10.30;;;5.90;;
36653;SDS011;22650;49.350;20.898;2023-05-10T03:55:59;10.88;;;6.50;;
36653;SDS011;22650;49.350;20.898;2023-05-10T03:58:33;10.15;;;5.57;;
36653;SDS011;22650;49.350;20.898;2023-05-10T04:01:06;17.70;;;7.75;;
36653;SDS011;22650;49.350;20.898;2023-05-10T04:03:40;13.93;;;8.38;;
36653;SDS011;22650;49.350;20.898;2023-05-10T04:06:16;16.00;;;9.30;;
36653;SDS011;22650;49.350;20.898;2023-05-10T04:08:51;16.98;;;7.20;;
36653;SDS011;22650;49.350;20.898;2023-05-10T04:11:25;14.88;;;8.25;;
36653;SDS011;22650;49.350;20.898;2023-05-10T04:13:59;15.05;;;9.07;;
36653;SDS011;22650;49.350;20.898;2023-05-10T04:16:33;15.43;;;8.93;;
36653;SDS011;22650;49.350;20.898;2023-05-10T04:19:07;14.82;;;8.27;;
36653;SDS011;22650;49.350;20.898;2023-05-10T04:21:41;15.80;;;8.23;;
36653;SDS011;22650;49.350;20.898;2023-05-10T04:24:16;16.27;;;8.68;;
36653;SDS011;22650;49.350;20.898;2023-05-10T04:26:50;18.38;;;8.75;;
36653;SDS011;22650;49.350;20.898;2023-05-10T04:29:24;15.60;;;8.93;;
36653;SDS011;22650;49.350;20.898;2023-05-10T04:31:58;13.45;;;7.00;;
36653;SDS011;22650;49.350;20.898;2023-05-10T04:34:32;13.30;;;8.38;;
36653;SDS011;22650;49.350;20.898;2023-05-10T04:37:07;15.30;;;6.65;;
36653;SDS011;22650;49.350;20.898;2023-05-10T04:39:48;10.93;;;7.07;;
36653;SDS011;22650;49.350;20.898;2023-05-10T04:42:24;15.85;;;6.32;;
36653;SDS011;22650;49.350;20.898;2023-05-10T04:44:59;13.20;;;6.82;;
36653;SDS011;22650;49.350;20.898;2023-05-10T04:47:51;10.43;;;6.07;;
36653;SDS011;22650;49.350;20.898;2023-05-10T04:50:37;11.88;;;6.10;;
36653;SDS011;22650;49.350;20.898;2023-05-10T04:53:19;18.37;;;9.70;;
36653;SDS011;22650;49.350;20.898;2023-05-10T04:55:59;8.85;;;4.43;;
36653;SDS011;22650;49.350;20.898;2023-05-10T04:58:34;7.50;;;3.83;;
36653;SDS011;22650;49.350;20.898;2023-05-10T05:01:09;9.13;;;4.80;;
36653;SDS011;22650;49.350;20.898;2023-05-10T05:03:43;10.10;;;4.72;;
36653;SDS011;22650;49.350;20.898;2023-05-10T05:06:17;9.13;;;4.78;;
36653;SDS011;22650;49.350;20.898;2023-05-10T05:08:52;13.15;;;4.57;;
36653;SDS011;22650;49.350;20.898;2023-05-10T05:11:27;10.52;;;4.28;;
36653;SDS011;22650;49.350;20.898;2023-05-10T05:14:01;7.72;;;4.22;;
36653;SDS011;22650;49.350;20.898;2023-05-10T05:16:35;7.68;;;4.95;;
36653;SDS011;22650;49.350;20.898;2023-05-10T05:19:09;11.82;;;5.20;;
36653;SDS011;22650;49.350;20.898;2023-05-10T05:21:43;9.80;;;4.93;;
36653;SDS011;22650;49.350;20.898;2023-05-10T05:24:17;7.30;;;4.70;;
36653;SDS011;22650;49.350;20.898;2023-05-10T05:26:52;8.88;;;4.57;;
36653;SDS011;22650;49.350;20.898;2023-05-10T05:29:26;9.73;;;4.10;;
36653;SDS011;22650;49.350;20.898;2023-05-10T05:32:00;10.20;;;5.10;;
36653;SDS011;22650;49.350;20.898;2023-05-10T05:34:34;10.15;;;4.22;;
36653;SDS011;22650;49.350;20.898;2023-05-10T05:37:07;7.63;;;4.18;;
36653;SDS011;22650;49.350;20.898;2023-05-10T05:39:46;6.65;;;4.20;;
36653;SDS011;22650;49.350;20.898;2023-05-10T05:42:21;7.80;;;4.38;;
36653;SDS011;22650;49.350;20.898;2023-05-10T05:44:55;11.13;;;3.85;;
36653;SDS011;22650;49.350;20.898;2023-05-10T05:47:29;9.27;;;4.40;;
36653;SDS011;22650;49.350;20.898;2023-05-10T05:50:03;25.60;;;3.95;;
36653;SDS011;22650;49.350;20.898;2023-05-10T05:52:41;17.35;;;5.45;;
36653;SDS011;22650;49.350;20.898;2023-05-10T05:55:18;8.38;;;4.32;;
36653;SDS011;22650;49.350;20.898;2023-05-10T05:57:53;8.35;;;4.53;;
36653;SDS011;22650;49.350;20.898;2023-05-10T06:00:27;8.40;;;4.38;;
36653;SDS011;22650;49.350;20.898;2023-05-10T06:03:01;8.88;;;4.38;;
36653;SDS011;22650;49.350;20.898;2023-05-10T06:05:36;11.55;;;3.72;;
36653;SDS011;22650;49.350;20.898;2023-05-10T06:08:11;9.20;;;4.55;;
36653;SDS011;22650;49.350;20.898;2023-05-10T06:10:45;9.88;;;4.45;;
36653;SDS011;22650;49.350;20.898;2023-05-10T06:13:21;9.82;;;4.70;;
36653;SDS011;22650;49.350;20.898;2023-05-10T06:15:55;10.27;;;4.63;;
36653;SDS011;22650;49.350;20.898;2023-05-10T06:18:29;11.18;;;4.97;;
36653;SDS011;22650;49.350;20.898;2023-05-10T06:21:03;12.18;;;5.00;;
36653;SDS011;22650;49.350;20.898;2023-05-10T06:23:37;8.77;;;3.03;;
36653;SDS011;22650;49.350;20.898;2023-05-10T06:26:11;5.15;;;2.17;;
36653;SDS011;22650;49.350;20.898;2023-05-10T06:28:46;6.15;;;1.77;;
36653;SDS011;22650;49.350;20.898;2023-05-10T06:31:20;5.28;;;2.47;;
36653;SDS011;22650;49.350;20.898;2023-05-10T06:33:54;4.13;;;1.67;;
36653;SDS011;22650;49.350;20.898;2023-05-10T06:36:28;3.22;;;2.35;;
36653;SDS011;22650;49.350;20.898;2023-05-10T06:39:02;4.30;;;1.70;;
36653;SDS011;22650;49.350;20.898;2023-05-10T06:41:36;3.30;;;1.77;;
36653;SDS011;22650;49.350;20.898;2023-05-10T06:44:11;1.60;;;1.30;;
36653;SDS011;22650;49.350;20.898;2023-05-10T06:46:44;2.08;;;1.48;;
36653;SDS011;22650;49.350;20.898;2023-05-10T06:49:18;2.65;;;1.95;;
36653;SDS011;22650;49.350;20.898;2023-05-10T06:51:52;3.78;;;2.10;;
36653;SDS011;22650;49.350;20.898;2023-05-10T06:54:26;3.20;;;1.60;;
36653;SDS011;22650;49.350;20.898;2023-05-10T06:57:00;11.55;;;1.85;;
36653;SDS011;22650;49.350;20.898;2023-05-10T06:59:42;3.92;;;1.77;;
36653;SDS011;22650;49.350;20.898;2023-05-10T07:02:16;3.15;;;1.98;;
36653;SDS011;22650;49.350;20.898;2023-05-10T07:04:50;7.90;;;1.90;;
36653;SDS011;22650;49.350;20.898;2023-05-10T07:07:24;3.10;;;1.73;;
36653;SDS011;22650;49.350;20.898;2023-05-10T07:09:57;2.70;;;1.45;;
36653;SDS011;22650;49.350;20.898;2023-05-10T07:12:32;3.85;;;1.80;;
36653;SDS011;22650;49.350;20.898;2023-05-10T07:15:08;3.60;;;1.52;;
36653;SDS011;22650;49.350;20.898;2023-05-10T07:17:42;3.97;;;1.70;;
36653;SDS011;22650;49.350;20.898;2023-05-10T07:20:17;4.38;;;2.25;;
36653;SDS011;22650;49.350;20.898;2023-05-10T07:22:51;4.38;;;1.70;;
36653;SDS011;22650;49.350;20.898;2023-05-10T07:25:25;3.22;;;1.85;;
36653;SDS011;22650;49.350;20.898;2023-05-10T07:27:59;2.97;;;1.63;;
36653;SDS011;22650;49.350;20.898;2023-05-10T07:30:34;2.95;;;1.40;;
36653;SDS011;22650;49.350;20.898;2023-05-10T07:33:08;3.35;;;1.75;;
36653;SDS011;22650;49.350;20.898;2023-05-10T07:35:43;2.58;;;1.63;;
36653;SDS011;22650;49.350;20.898;2023-05-10T07:38:16;2.50;;;1.45;;
36653;SDS011;22650;49.350;20.898;2023-05-10T07:40:50;2.10;;;1.35;;
36653;SDS011;22650;49.350;20.898;2023-05-10T07:43:24;7.70;;;1.77;;
36653;SDS011;22650;49.350;20.898;2023-05-10T07:45:59;2.40;;;1.70;;
36653;SDS011;22650;49.350;20.898;2023-05-10T07:48:33;2.53;;;1.27;;
36653;SDS011;22650;49.350;20.898;2023-05-10T07:51:06;4.13;;;1.90;;
36653;SDS011;22650;49.350;20.898;2023-05-10T07:53:41;1.73;;;1.55;;
36653;SDS011;22650;49.350;20.898;2023-05-10T07:56:21;3.03;;;1.67;;
36653;SDS011;22650;49.350;20.898;2023-05-10T07:58:58;2.78;;;1.58;;
36653;SDS011;22650;49.350;20.898;2023-05-10T08:01:35;3.55;;;1.50;;
36653;SDS011;22650;49.350;20.898;2023-05-10T08:04:09;11.43;;;1.98;;
36653;SDS011;22650;49.350;20.898;2023-05-10T08:06:43;1.25;;;1.15;;
36653;SDS011;22650;49.350;20.898;2023-05-10T08:09:17;2.47;;;1.60;;
36653;SDS011;22650;49.350;20.898;2023-05-10T08:11:55;2.92;;;1.45;;
36653;SDS011;22650;49.350;20.898;2023-05-10T08:14:31;7.53;;;2.25;;
36653;SDS011;22650;49.350;20.898;2023-05-10T08:17:06;3.47;;;2.38;;
36653;SDS011;22650;49.350;20.898;2023-05-10T08:19:39;2.22;;;1.73;;
36653;SDS011;22650;49.350;20.898;2023-05-10T08:22:13;3.45;;;2.03;;
36653;SDS011;22650;49.350;20.898;2023-05-10T08:24:47;2.15;;;1.48;;
36653;SDS011;22650;49.350;20.898;2023-05-10T08:27:20;2.05;;;1.60;;
36653;SDS011;22650;49.350;20.898;2023-05-10T08:29:54;3.08;;;1.65;;
36653;SDS011;22650;49.350;20.898;2023-05-10T08:32:29;3.88;;;1.48;;
36653;SDS011;22650;49.350;20.898;2023-05-10T08:35:03;2.08;;;1.42;;
36653;SDS011;22650;49.350;20.898;2023-05-10T08:37:37;4.47;;;1.52;;
36653;SDS011;22650;49.350;20.898;2023-05-10T08:40:11;3.38;;;1.27;;
36653;SDS011;22650;49.350;20.898;2023-05-10T08:42:47;1.95;;;1.48;;
36653;SDS011;22650;49.350;20.898;2023-05-10T08:45:26;2.92;;;1.98;;
36653;SDS011;22650;49.350;20.898;2023-05-10T08:48:06;3.88;;;1.80;;
36653;SDS011;22650;49.350;20.898;2023-05-10T08:50:41;5.05;;;2.03;;
36653;SDS011;22650;49.350;20.898;2023-05-10T08:53:15;3.38;;;1.80;;
36653;SDS011;22650;49.350;20.898;2023-05-10T08:55:50;2.20;;;1.40;;
36653;SDS011;22650;49.350;20.898;2023-05-10T08:58:24;2.70;;;1.50;;
36653;SDS011;22650;49.350;20.898;2023-05-10T09:00:58;3.38;;;1.45;;
36653;SDS011;22650;49.350;20.898;2023-05-10T09:03:35;4.47;;;2.15;;
36653;SDS011;22650;49.350;20.898;2023-05-10T09:06:11;1.90;;;1.30;;
36653;SDS011;22650;49.350;20.898;2023-05-10T09:08:46;3.08;;;1.73;;
36653;SDS011;22650;49.350;20.898;2023-05-10T09:11:20;2.28;;;1.63;;
36653;SDS011;22650;49.350;20.898;2023-05-10T09:13:54;12.10;;;1.48;;
36653;SDS011;22650;49.350;20.898;2023-05-10T09:16:28;2.88;;;1.35;;
36653;SDS011;22650;49.350;20.898;2023-05-10T09:19:04;4.10;;;1.40;;
36653;SDS011;22650;49.350;20.898;2023-05-10T09:21:40;6.78;;;1.73;;
36653;SDS011;22650;49.350;20.898;2023-05-10T09:24:14;1.40;;;1.25;;
36653;SDS011;22650;49.350;20.898;2023-05-10T09:26:48;2.70;;;1.70;;
36653;SDS011;22650;49.350;20.898;2023-05-10T09:29:22;4.88;;;1.90;;
36653;SDS011;22650;49.350;20.898;2023-05-10T09:31:55;2.65;;;1.63;;
36653;SDS011;22650;49.350;20.898;2023-05-10T09:34:31;3.53;;;1.42;;
36653;SDS011;22650;49.350;20.898;2023-05-10T09:37:06;4.65;;;1.85;;
36653;SDS011;22650;49.350;20.898;2023-05-10T09:39:40;2.92;;;2.00;;
36653;SDS011;22650;49.350;20.898;2023-05-10T09:42:17;2.33;;;1.48;;
36653;SDS011;22650;49.350;20.898;2023-05-10T09:44:53;4.53;;;1.48;;
36653;SDS011;22650;49.350;20.898;2023-05-10T09:47:27;3.05;;;1.92;;
36653;SDS011;22650;49.350;20.898;2023-05-10T09:50:02;3.47;;;1.85;;
36653;SDS011;22650;49.350;20.898;2023-05-10T09:52:45;4.93;;;1.90;;
36653;SDS011;22650;49.350;20.898;2023-05-10T09:55:20;2.45;;;1.60;;
36653;SDS011;22650;49.350;20.898;2023-05-10T09:57:59;1.88;;;1.50;;
36653;SDS011;22650;49.350;20.898;2023-05-10T10:00:34;1.65;;;1.20;;
36653;SDS011;22650;49.350;20.898;2023-05-10T10:03:12;2.15;;;1.58;;
36653;SDS011;22650;49.350;20.898;2023-05-10T10:05:48;3.03;;;1.60;;
36653;SDS011;22650;49.350;20.898;2023-05-10T10:08:23;6.82;;;1.65;;
36653;SDS011;22650;49.350;20.898;2023-05-10T10:10:57;1.83;;;1.15;;
36653;SDS011;22650;49.350;20.898;2023-05-10T10:13:31;2.75;;;1.55;;
36653;SDS011;22650;49.350;20.898;2023-05-10T10:16:05;2.00;;;1.40;;
36653;SDS011;22650;49.350;20.898;2023-05-10T10:18:41;3.88;;;2.25;;
36653;SDS011;22650;49.350;20.898;2023-05-10T10:21:16;2.55;;;1.38;;
36653;SDS011;22650;49.350;20.898;2023-05-10T10:23:51;2.35;;;1.40;;
36653;SDS011;22650;49.350;20.898;2023-05-10T10:26:25;3.08;;;1.55;;
36653;SDS011;22650;49.350;20.898;2023-05-10T10:29:00;2.05;;;1.23;;
36653;SDS011;22650;49.350;20.898;2023-05-10T10:31:45;1.45;;;1.10;;
36653;SDS011;22650;49.350;20.898;2023-05-10T10:34:25;3.92;;;1.50;;
36653;SDS011;22650;49.350;20.898;2023-05-10T10:37:05;1.05;;;0.90;;
36653;SDS011;22650;49.350;20.898;2023-05-10T10:39:39;4.30;;;1.63;;
36653;SDS011;22650;49.350;20.898;2023-05-10T10:42:16;2.00;;;1.00;;
36653;SDS011;22650;49.350;20.898;2023-05-10T10:45:27;3.85;;;1.25;;
36653;SDS011;22650;49.350;20.898;2023-05-10T10:48:20;1.95;;;1.33;;
36653;SDS011;22650;49.350;20.898;2023-05-10T10:50:58;1.88;;;1.10;;
36653;SDS011;22650;49.350;20.898;2023-05-10T10:53:33;1.52;;;1.20;;
36653;SDS011;22650;49.350;20.898;2023-05-10T10:56:07;2.10;;;1.52;;
36653;SDS011;22650;49.350;20.898;2023-05-10T10:58:48;3.72;;;1.33;;
36653;SDS011;22650;49.350;20.898;2023-05-10T11:23:59;2.33;;;1.67;;
36653;SDS011;22650;49.350;20.898;2023-05-10T11:26:38;2.28;;;1.17;;
36653;SDS011;22650;49.350;20.898;2023-05-10T11:32:11;1.63;;;1.38;;
36653;SDS011;22650;49.350;20.898;2023-05-10T11:34:51;2.50;;;1.13;;
36653;SDS011;22650;49.350;20.898;2023-05-10T12:15:48;2.70;;;1.33;;
36653;SDS011;22650;49.350;20.898;2023-05-10T12:23:45;2.03;;;1.67;;
36653;SDS011;22650;49.350;20.898;2023-05-10T12:34:26;4.68;;;1.60;;
36653;SDS011;22650;49.350;20.898;2023-05-10T12:37:05;3.15;;;1.50;;
36653;SDS011;22650;49.350;20.898;2023-05-10T12:39:44;1.80;;;1.40;;
36653;SDS011;22650;49.350;20.898;2023-05-10T12:42:21;2.35;;;1.55;;
36653;SDS011;22650;49.350;20.898;2023-05-10T12:44:57;3.17;;;1.45;;
36653;SDS011;22650;49.350;20.898;2023-05-10T12:47:31;1.98;;;1.60;;
36653;SDS011;22650;49.350;20.898;2023-05-10T12:50:07;2.92;;;1.27;;
36653;SDS011;22650;49.350;20.898;2023-05-10T12:52:42;7.35;;;1.52;;
36653;SDS011;22650;49.350;20.898;2023-05-10T12:55:16;1.67;;;1.38;;
36653;SDS011;22650;49.350;20.898;2023-05-10T12:57:50;2.17;;;1.30;;
36653;SDS011;22650;49.350;20.898;2023-05-10T13:00:24;3.53;;;1.33;;
36653;SDS011;22650;49.350;20.898;2023-05-10T13:02:58;2.13;;;1.30;;
36653;SDS011;22650;49.350;20.898;2023-05-10T13:05:33;3.67;;;1.70;;
36653;SDS011;22650;49.350;20.898;2023-05-10T13:08:09;4.10;;;1.48;;
36653;SDS011;22650;49.350;20.898;2023-05-10T13:10:43;1.60;;;1.25;;
36653;SDS011;22650;49.350;20.898;2023-05-10T13:13:17;2.35;;;1.30;;
36653;SDS011;22650;49.350;20.898;2023-05-10T13:15:51;3.42;;;1.10;;
36653;SDS011;22650;49.350;20.898;2023-05-10T13:18:24;2.53;;;1.25;;
36653;SDS011;22650;49.350;20.898;2023-05-10T13:21:00;3.40;;;1.35;;
36653;SDS011;22650;49.350;20.898;2023-05-10T13:23:38;3.53;;;1.30;;
36653;SDS011;22650;49.350;20.898;2023-05-10T13:26:12;1.55;;;1.10;;
36653;SDS011;22650;49.350;20.898;2023-05-10T13:28:47;2.30;;;1.30;;
36653;SDS011;22650;49.350;20.898;2023-05-10T13:31:23;2.88;;;1.60;;
36653;SDS011;22650;49.350;20.898;2023-05-10T13:33:57;2.08;;;1.20;;
36653;SDS011;22650;49.350;20.898;2023-05-10T13:36:34;1.45;;;1.17;;
36653;SDS011;22650;49.350;20.898;2023-05-10T13:39:08;4.97;;;1.42;;
36653;SDS011;22650;49.350;20.898;2023-05-10T13:41:42;1.77;;;1.20;;
36653;SDS011;22650;49.350;20.898;2023-05-10T13:44:16;2.67;;;1.40;;
36653;SDS011;22650;49.350;20.898;2023-05-10T13:46:50;2.65;;;1.27;;
36653;SDS011;22650;49.350;20.898;2023-05-10T13:49:24;1.75;;;1.00;;
36653;SDS011;22650;49.350;20.898;2023-05-10T13:52:00;1.10;;;1.00;;
36653;SDS011;22650;49.350;20.898;2023-05-10T13:54:37;4.35;;;1.10;;
36653;SDS011;22650;49.350;20.898;2023-05-10T13:57:11;1.70;;;1.08;;
36653;SDS011;22650;49.350;20.898;2023-05-10T13:59:45;3.22;;;1.23;;
36653;SDS011;22650;49.350;20.898;2023-05-10T14:02:19;3.13;;;1.23;;
36653;SDS011;22650;49.350;20.898;2023-05-10T14:04:53;2.53;;;1.23;;
36653;SDS011;22650;49.350;20.898;2023-05-10T14:07:28;1.67;;;1.05;;
36653;SDS011;22650;49.350;20.898;2023-05-10T14:10:02;2.17;;;1.20;;
36653;SDS011;22650;49.350;20.898;2023-05-10T14:12:37;1.90;;;1.52;;
36653;SDS011;22650;49.350;20.898;2023-05-10T14:15:11;6.45;;;1.17;;
36653;SDS011;22650;49.350;20.898;2023-05-10T14:17:45;2.67;;;1.30;;
36653;SDS011;22650;49.350;20.898;2023-05-10T14:20:19;5.80;;;2.08;;
36653;SDS011;22650;49.350;20.898;2023-05-10T14:22:55;3.95;;;1.75;;
36653;SDS011;22650;49.350;20.898;2023-05-10T14:25:29;2.10;;;1.58;;
36653;SDS011;22650;49.350;20.898;2023-05-10T14:28:03;2.60;;;1.30;;
36653;SDS011;22650;49.350;20.898;2023-05-10T14:30:36;2.05;;;1.13;;
36653;SDS011;22650;49.350;20.898;2023-05-10T14:33:10;3.90;;;0.95;;
36653;SDS011;22650;49.350;20.898;2023-05-10T14:35:44;1.70;;;1.40;;
36653;SDS011;22650;49.350;20.898;2023-05-10T14:38:20;4.65;;;1.58;;
36653;SDS011;22650;49.350;20.898;2023-05-10T14:40:53;1.42;;;0.93;;
36653;SDS011;22650;49.350;20.898;2023-05-10T14:43:27;2.42;;;1.00;;
36653;SDS011;22650;49.350;20.898;2023-05-10T14:46:02;3.03;;;2.30;;
36653;SDS011;22650;49.350;20.898;2023-05-10T14:48:36;2.05;;;1.20;;
36653;SDS011;22650;49.350;20.898;2023-05-10T14:51:10;1.33;;;1.23;;
36653;SDS011;22650;49.350;20.898;2023-05-10T14:53:46;2.70;;;1.40;;
36653;SDS011;22650;49.350;20.898;2023-05-10T14:56:19;1.70;;;1.10;;
36653;SDS011;22650;49.350;20.898;2023-05-10T14:58:54;2.38;;;1.35;;
36653;SDS011;22650;49.350;20.898;2023-05-10T15:01:28;1.10;;;1.00;;
36653;SDS011;22650;49.350;20.898;2023-05-10T15:04:03;1.90;;;1.35;;
36653;SDS011;22650;49.350;20.898;2023-05-10T15:06:37;3.90;;;1.17;;
36653;SDS011;22650;49.350;20.898;2023-05-10T15:09:13;2.25;;;1.48;;
36653;SDS011;22650;49.350;20.898;2023-05-10T15:11:47;1.27;;;1.15;;
36653;SDS011;22650;49.350;20.898;2023-05-10T15:14:21;1.52;;;1.10;;
36653;SDS011;22650;49.350;20.898;2023-05-10T15:16:55;3.95;;;1.13;;
36653;SDS011;22650;49.350;20.898;2023-05-10T15:19:29;1.50;;;1.02;;
36653;SDS011;22650;49.350;20.898;2023-05-10T15:22:03;1.65;;;1.52;;
36653;SDS011;22650;49.350;20.898;2023-05-10T15:24:39;8.90;;;1.80;;
36653;SDS011;22650;49.350;20.898;2023-05-10T15:27:13;1.52;;;1.23;;
36653;SDS011;22650;49.350;20.898;2023-05-10T15:29:46;1.63;;;1.30;;
36653;SDS011;22650;49.350;20.898;2023-05-10T15:32:20;9.38;;;1.30;;
36653;SDS011;22650;49.350;20.898;2023-05-10T15:34:54;2.63;;;1.00;;
36653;SDS011;22650;49.350;20.898;2023-05-10T15:37:28;1.65;;;0.98;;
36653;SDS011;22650;49.350;20.898;2023-05-10T15:40:03;1.45;;;0.98;;
36653;SDS011;22650;49.350;20.898;2023-05-10T15:42:38;1.95;;;1.05;;
36653;SDS011;22650;49.350;20.898;2023-05-10T15:45:12;3.45;;;1.70;;
36653;SDS011;22650;49.350;20.898;2023-05-10T15:47:47;8.25;;;1.30;;
36653;SDS011;22650;49.350;20.898;2023-05-10T15:50:21;1.33;;;1.02;;
36653;SDS011;22650;49.350;20.898;2023-05-10T15:52:55;2.08;;;1.10;;
36653;SDS011;22650;49.350;20.898;2023-05-10T15:55:30;7.03;;;0.88;;
36653;SDS011;22650;49.350;20.898;2023-05-10T15:58:05;1.90;;;1.40;;
36653;SDS011;22650;49.350;20.898;2023-05-10T16:00:43;2.70;;;1.25;;
36653;SDS011;22650;49.350;20.898;2023-05-10T16:03:16;1.08;;;0.82;;
36653;SDS011;22650;49.350;20.898;2023-05-10T16:05:52;2.17;;;1.23;;
36653;SDS011;22650;49.350;20.898;2023-05-10T16:08:26;3.10;;;1.00;;
36653;SDS011;22650;49.350;20.898;2023-05-10T16:11:03;2.28;;;1.13;;
36653;SDS011;22650;49.350;20.898;2023-05-10T16:13:37;2.95;;;1.50;;
36653;SDS011;22650;49.350;20.898;2023-05-10T16:16:11;3.17;;;1.60;;
36653;SDS011;22650;49.350;20.898;2023-05-10T16:18:45;3.72;;;1.88;;
36653;SDS011;22650;49.350;20.898;2023-05-10T16:21:19;3.63;;;1.67;;
36653;SDS011;22650;49.350;20.898;2023-05-10T16:23:53;7.93;;;1.73;;
36653;SDS011;22650;49.350;20.898;2023-05-10T16:26:28;2.20;;;1.80;;
36653;SDS011;22650;49.350;20.898;2023-05-10T16:29:02;4.07;;;1.90;;
36653;SDS011;22650;49.350;20.898;2023-05-10T16:31:35;3.83;;;1.55;;
36653;SDS011;22650;49.350;20.898;2023-05-10T16:34:09;2.47;;;1.75;;
36653;SDS011;22650;49.350;20.898;2023-05-10T16:36:43;2.65;;;1.17;;
36653;SDS011;22650;49.350;20.898;2023-05-10T16:39:17;5.97;;;1.40;;
36653;SDS011;22650;49.350;20.898;2023-05-10T16:41:52;1.88;;;1.10;;
36653;SDS011;22650;49.350;20.898;2023-05-10T16:44:27;6.57;;;2.58;;
36653;SDS011;22650;49.350;20.898;2023-05-10T16:47:04;8.23;;;4.65;;